sensor_id;sensor_type;location;lat;lon;timestamp;P1;durP1;ratioP1;P2;durP2;ratioP2
71759;SDS011;59919;48.112;16.280;2023-07-29T00:01:10;1.25;;;0.95;;
71759;SDS011;59919;48.112;16.280;2023-07-29T00:03:41;2.42;;;1.05;;
71759;SDS011;59919;48.112;16.280;2023-07-29T00:06:12;1.30;;;1.00;;
71759;SDS011;59919;48.112;16.280;2023-07-29T00:08:43;1.23;;;1.08;;
71759;SDS011;59919;48.112;16.280;2023-07-29T00:11:14;1.30;;;0.90;;
71759;SDS011;59919;48.112;16.280;2023-07-29T00:13:51;1.40;;;1.02;;
71759;SDS011;59919;48.112;16.280;2023-07-29T00:16:25;1.58;;;1.17;;
71759;SDS011;59919;48.112;16.280;2023-07-29T00:18:56;1.98;;;1.10;;
71759;SDS011;59919;48.112;16.280;2023-07-29T00:21:29;1.17;;;1.00;;
71759;SDS011;59919;48.112;16.280;2023-07-29T00:24:00;1.15;;;0.80;;
71759;SDS011;59919;48.112;16.280;2023-07-29T00:26:31;1.20;;;1.00;;
71759;SDS011;59919;48.112;16.280;2023-07-29T00:29:03;1.85;;;1.25;;
71759;SDS011;59919;48.112;16.280;2023-07-29T00:31:37;0.77;;;0.70;;
71759;SDS011;59919;48.112;16.280;2023-07-29T00:34:13;1.30;;;1.20;;
71759;SDS011;59919;48.112;16.280;2023-07-29T00:36:47;1.17;;;1.00;;
71759;SDS011;59919;48.112;16.280;2023-07-29T00:39:21;1.45;;;0.93;;
71759;SDS011;59919;48.112;16.280;2023-07-29T00:41:53;1.35;;;0.95;;
71759;SDS011;59919;48.112;16.280;2023-07-29T00:44:24;1.23;;;1.05;;
71759;SDS011;59919;48.112;16.280;2023-07-29T00:46:55;1.38;;;1.00;;
71759;SDS011;59919;48.112;16.280;2023-07-29T00:49:26;1.25;;;0.90;;
71759;SDS011;59919;48.112;16.280;2023-07-29T00:52:03;1.20;;;1.08;;
71759;SDS011;59919;48.112;16.280;2023-07-29T00:54:37;1.10;;;0.90;;
71759;SDS011;59919;48.112;16.280;2023-07-29T00:59:45;1.00;;;0.80;;
71759;SDS011;59919;48.112;16.280;2023-07-29T01:02:16;1.30;;;0.85;;
71759;SDS011;59919;48.112;16.280;2023-07-29T01:04:52;1.02;;;0.73;;
71759;SDS011;59919;48.112;16.280;2023-07-29T01:15:54;1.15;;;0.90;;
71759;SDS011;59919;48.112;16.280;2023-07-29T01:18:31;1.13;;;1.00;;
71759;SDS011;59919;48.112;16.280;2023-07-29T01:21:07;0.90;;;0.80;;
71759;SDS011;59919;48.112;16.280;2023-07-29T01:23:39;1.33;;;1.00;;
71759;SDS011;59919;48.112;16.280;2023-07-29T01:26:10;1.00;;;0.85;;
71759;SDS011;59919;48.112;16.280;2023-07-29T01:28:43;0.90;;;0.80;;
71759;SDS011;59919;48.112;16.280;2023-07-29T01:31:30;1.25;;;0.90;;
71759;SDS011;59919;48.112;16.280;2023-07-29T01:34:06;1.20;;;0.93;;
71759;SDS011;59919;48.112;16.280;2023-07-29T01:36:44;1.10;;;0.80;;
71759;SDS011;59919;48.112;16.280;2023-07-29T01:39:20;1.20;;;1.00;;
71759;SDS011;59919;48.112;16.280;2023-07-29T01:41:55;0.90;;;0.80;;
71759;SDS011;59919;48.112;16.280;2023-07-29T01:44:33;0.80;;;0.70;;
71759;SDS011;59919;48.112;16.280;2023-07-29T01:47:05;1.23;;;0.80;;
71759;SDS011;59919;48.112;16.280;2023-07-29T01:49:36;1.17;;;0.93;;
71759;SDS011;59919;48.112;16.280;2023-07-29T01:52:09;1.13;;;1.00;;
71759;SDS011;59919;48.112;16.280;2023-07-29T01:54:43;1.02;;;0.95;;
71759;SDS011;59919;48.112;16.280;2023-07-29T01:57:14;0.70;;;0.70;;
71759;SDS011;59919;48.112;16.280;2023-07-29T01:59:47;1.13;;;0.90;;
71759;SDS011;59919;48.112;16.280;2023-07-29T02:02:21;1.08;;;0.98;;
71759;SDS011;59919;48.112;16.280;2023-07-29T02:04:53;1.05;;;0.95;;
71759;SDS011;59919;48.112;16.280;2023-07-29T02:07:26;1.25;;;1.08;;
71759;SDS011;59919;48.112;16.280;2023-07-29T02:09:58;0.82;;;0.82;;
71759;SDS011;59919;48.112;16.280;2023-07-29T02:12:30;1.08;;;0.80;;
71759;SDS011;59919;48.112;16.280;2023-07-29T02:15:04;2.03;;;0.98;;
71759;SDS011;59919;48.112;16.280;2023-07-29T02:17:35;1.10;;;0.90;;
71759;SDS011;59919;48.112;16.280;2023-07-29T02:20:17;1.20;;;0.88;;
71759;SDS011;59919;48.112;16.280;2023-07-29T02:22:53;0.70;;;0.70;;
71759;SDS011;59919;48.112;16.280;2023-07-29T02:25:24;1.10;;;1.00;;
71759;SDS011;59919;48.112;16.280;2023-07-29T02:27:55;1.05;;;0.95;;
71759;SDS011;59919;48.112;16.280;2023-07-29T02:30:29;1.25;;;1.10;;
71759;SDS011;59919;48.112;16.280;2023-07-29T02:33:03;1.33;;;1.15;;
71759;SDS011;59919;48.112;16.280;2023-07-29T02:35:34;1.23;;;1.08;;
71759;SDS011;59919;48.112;16.280;2023-07-29T02:38:05;1.08;;;0.88;;
71759;SDS011;59919;48.112;16.280;2023-07-29T02:40:38;0.90;;;0.88;;
71759;SDS011;59919;48.112;16.280;2023-07-29T02:43:12;1.02;;;0.90;;
71759;SDS011;59919;48.112;16.280;2023-07-29T02:45:46;1.05;;;0.85;;
71759;SDS011;59919;48.112;16.280;2023-07-29T02:48:19;0.93;;;0.80;;
71759;SDS011;59919;48.112;16.280;2023-07-29T02:50:53;1.20;;;1.00;;
71759;SDS011;59919;48.112;16.280;2023-07-29T02:53:27;1.20;;;0.90;;
71759;SDS011;59919;48.112;16.280;2023-07-29T02:55:59;1.73;;;1.20;;
71759;SDS011;59919;48.112;16.280;2023-07-29T02:58:37;1.05;;;0.82;;
71759;SDS011;59919;48.112;16.280;2023-07-29T03:01:15;1.30;;;1.00;;
71759;SDS011;59919;48.112;16.280;2023-07-29T03:03:49;0.80;;;0.70;;
71759;SDS011;59919;48.112;16.280;2023-07-29T03:06:40;0.82;;;0.77;;
71759;SDS011;59919;48.112;16.280;2023-07-29T03:09:14;1.27;;;1.10;;
71759;SDS011;59919;48.112;16.280;2023-07-29T03:11:45;1.02;;;0.90;;
71759;SDS011;59919;48.112;16.280;2023-07-29T03:14:17;1.02;;;0.90;;
71759;SDS011;59919;48.112;16.280;2023-07-29T03:16:51;2.97;;;0.90;;
71759;SDS011;59919;48.112;16.280;2023-07-29T03:19:23;1.20;;;0.98;;
71759;SDS011;59919;48.112;16.280;2023-07-29T03:21:54;0.77;;;0.63;;
71759;SDS011;59919;48.112;16.280;2023-07-29T03:24:25;1.10;;;0.82;;
71759;SDS011;59919;48.112;16.280;2023-07-29T03:26:56;0.98;;;0.80;;
71759;SDS011;59919;48.112;16.280;2023-07-29T03:29:27;1.02;;;0.80;;
71759;SDS011;59919;48.112;16.280;2023-07-29T03:31:58;0.88;;;0.80;;
71759;SDS011;59919;48.112;16.280;2023-07-29T03:34:29;1.10;;;0.98;;
71759;SDS011;59919;48.112;16.280;2023-07-29T03:37:00;1.15;;;0.85;;
71759;SDS011;59919;48.112;16.280;2023-07-29T03:39:32;1.00;;;0.90;;
71759;SDS011;59919;48.112;16.280;2023-07-29T03:42:03;0.90;;;0.80;;
71759;SDS011;59919;48.112;16.280;2023-07-29T03:44:37;1.02;;;0.80;;
71759;SDS011;59919;48.112;16.280;2023-07-29T03:47:10;0.70;;;0.70;;
71759;SDS011;59919;48.112;16.280;2023-07-29T03:49:44;1.13;;;1.00;;
71759;SDS011;59919;48.112;16.280;2023-07-29T03:52:15;1.00;;;0.90;;
71759;SDS011;59919;48.112;16.280;2023-07-29T03:54:46;1.00;;;0.80;;
71759;SDS011;59919;48.112;16.280;2023-07-29T03:57:20;1.40;;;1.20;;
71759;SDS011;59919;48.112;16.280;2023-07-29T03:59:51;1.20;;;1.00;;
71759;SDS011;59919;48.112;16.280;2023-07-29T04:02:22;0.82;;;0.82;;
71759;SDS011;59919;48.112;16.280;2023-07-29T04:04:55;1.17;;;0.98;;
71759;SDS011;59919;48.112;16.280;2023-07-29T04:07:26;1.00;;;0.90;;
71759;SDS011;59919;48.112;16.280;2023-07-29T04:09:58;0.77;;;0.70;;
71759;SDS011;59919;48.112;16.280;2023-07-29T04:12:31;0.98;;;0.82;;
71759;SDS011;59919;48.112;16.280;2023-07-29T04:15:02;0.98;;;0.77;;
71759;SDS011;59919;48.112;16.280;2023-07-29T04:17:36;0.98;;;0.80;;
71759;SDS011;59919;48.112;16.280;2023-07-29T04:20:07;0.90;;;0.80;;
71759;SDS011;59919;48.112;16.280;2023-07-29T04:22:39;0.80;;;0.70;;
71759;SDS011;59919;48.112;16.280;2023-07-29T04:25:10;1.00;;;0.90;;
71759;SDS011;59919;48.112;16.280;2023-07-29T04:27:41;0.82;;;0.70;;
71759;SDS011;59919;48.112;16.280;2023-07-29T04:30:13;0.77;;;0.75;;
71759;SDS011;59919;48.112;16.280;2023-07-29T04:32:44;1.00;;;0.90;;
71759;SDS011;59919;48.112;16.280;2023-07-29T04:35:16;0.88;;;0.80;;
71759;SDS011;59919;48.112;16.280;2023-07-29T04:37:48;0.93;;;0.82;;
71759;SDS011;59919;48.112;16.280;2023-07-29T04:40:19;1.00;;;0.90;;
71759;SDS011;59919;48.112;16.280;2023-07-29T04:42:50;0.98;;;0.88;;
71759;SDS011;59919;48.112;16.280;2023-07-29T04:45:22;1.00;;;0.90;;
71759;SDS011;59919;48.112;16.280;2023-07-29T04:47:53;1.00;;;0.90;;
71759;SDS011;59919;48.112;16.280;2023-07-29T04:50:31;1.13;;;0.80;;
71759;SDS011;59919;48.112;16.280;2023-07-29T04:53:05;1.10;;;0.85;;
71759;SDS011;59919;48.112;16.280;2023-07-29T04:55:36;1.63;;;0.88;;
71759;SDS011;59919;48.112;16.280;2023-07-29T04:58:07;1.45;;;0.95;;
71759;SDS011;59919;48.112;16.280;2023-07-29T05:00:39;2.08;;;0.68;;
71759;SDS011;59919;48.112;16.280;2023-07-29T05:03:12;1.25;;;0.98;;
71759;SDS011;59919;48.112;16.280;2023-07-29T05:05:43;1.30;;;0.85;;
71759;SDS011;59919;48.112;16.280;2023-07-29T05:08:14;1.98;;;0.75;;
71759;SDS011;59919;48.112;16.280;2023-07-29T05:10:51;0.95;;;0.85;;
71759;SDS011;59919;48.112;16.280;2023-07-29T05:13:23;2.25;;;1.00;;
71759;SDS011;59919;48.112;16.280;2023-07-29T05:15:57;1.05;;;0.70;;
71759;SDS011;59919;48.112;16.280;2023-07-29T05:18:28;0.93;;;0.85;;
71759;SDS011;59919;48.112;16.280;2023-07-29T05:20:59;1.35;;;0.90;;
71759;SDS011;59919;48.112;16.280;2023-07-29T05:23:32;0.90;;;0.70;;
71759;SDS011;59919;48.112;16.280;2023-07-29T05:26:03;0.80;;;0.70;;
71759;SDS011;59919;48.112;16.280;2023-07-29T05:28:34;0.90;;;0.80;;
71759;SDS011;59919;48.112;16.280;2023-07-29T05:31:06;1.63;;;0.68;;
71759;SDS011;59919;48.112;16.280;2023-07-29T05:33:37;0.80;;;0.80;;
71759;SDS011;59919;48.112;16.280;2023-07-29T05:36:08;1.52;;;1.10;;
71759;SDS011;59919;48.112;16.280;2023-07-29T05:38:42;0.75;;;0.73;;
71759;SDS011;59919;48.112;16.280;2023-07-29T05:41:13;1.60;;;0.90;;
71759;SDS011;59919;48.112;16.280;2023-07-29T05:43:44;1.45;;;1.02;;
71759;SDS011;59919;48.112;16.280;2023-07-29T05:46:16;1.33;;;1.00;;
71759;SDS011;59919;48.112;16.280;2023-07-29T05:48:47;1.17;;;0.80;;
71759;SDS011;59919;48.112;16.280;2023-07-29T05:51:18;1.48;;;0.85;;
71759;SDS011;59919;48.112;16.280;2023-07-29T05:53:54;1.15;;;0.82;;
71759;SDS011;59919;48.112;16.280;2023-07-29T05:56:27;0.93;;;0.80;;
71759;SDS011;59919;48.112;16.280;2023-07-29T05:58:58;1.15;;;1.00;;
71759;SDS011;59919;48.112;16.280;2023-07-29T06:01:30;2.30;;;0.93;;
71759;SDS011;59919;48.112;16.280;2023-07-29T06:04:03;2.53;;;0.70;;
71759;SDS011;59919;48.112;16.280;2023-07-29T06:06:37;0.63;;;0.60;;
71759;SDS011;59919;48.112;16.280;2023-07-29T06:09:11;0.95;;;0.85;;
71759;SDS011;59919;48.112;16.280;2023-07-29T06:11:45;1.40;;;1.10;;
71759;SDS011;59919;48.112;16.280;2023-07-29T06:14:16;1.67;;;0.80;;
71759;SDS011;59919;48.112;16.280;2023-07-29T06:16:47;2.03;;;0.90;;
71759;SDS011;59919;48.112;16.280;2023-07-29T06:19:19;1.27;;;0.90;;
71759;SDS011;59919;48.112;16.280;2023-07-29T06:21:51;1.10;;;0.88;;
71759;SDS011;59919;48.112;16.280;2023-07-29T06:24:26;1.35;;;0.80;;
71759;SDS011;59919;48.112;16.280;2023-07-29T06:26:57;0.82;;;0.82;;
71759;SDS011;59919;48.112;16.280;2023-07-29T06:29:29;1.38;;;0.80;;
71759;SDS011;59919;48.112;16.280;2023-07-29T06:32:00;1.10;;;1.00;;
71759;SDS011;59919;48.112;16.280;2023-07-29T06:34:31;0.95;;;0.85;;
71759;SDS011;59919;48.112;16.280;2023-07-29T06:37:07;1.25;;;0.95;;
71759;SDS011;59919;48.112;16.280;2023-07-29T06:39:38;1.08;;;0.82;;
71759;SDS011;59919;48.112;16.280;2023-07-29T06:42:09;1.63;;;0.90;;
71759;SDS011;59919;48.112;16.280;2023-07-29T06:44:42;0.80;;;0.70;;
71759;SDS011;59919;48.112;16.280;2023-07-29T06:47:16;1.13;;;0.73;;
71759;SDS011;59919;48.112;16.280;2023-07-29T06:49:47;4.07;;;1.58;;
71759;SDS011;59919;48.112;16.280;2023-07-29T06:52:21;3.83;;;1.90;;
71759;SDS011;59919;48.112;16.280;2023-07-29T06:54:54;3.80;;;1.60;;
71759;SDS011;59919;48.112;16.280;2023-07-29T06:57:30;4.90;;;1.70;;
71759;SDS011;59919;48.112;16.280;2023-07-29T07:00:02;6.05;;;2.13;;
71759;SDS011;59919;48.112;16.280;2023-07-29T07:02:34;4.05;;;1.80;;
71759;SDS011;59919;48.112;16.280;2023-07-29T07:05:05;5.00;;;2.28;;
71759;SDS011;59919;48.112;16.280;2023-07-29T07:07:37;3.38;;;2.05;;
71759;SDS011;59919;48.112;16.280;2023-07-29T07:10:08;7.35;;;2.70;;
71759;SDS011;59919;48.112;16.280;2023-07-29T07:12:39;5.65;;;2.20;;
71759;SDS011;59919;48.112;16.280;2023-07-29T07:15:14;5.40;;;2.00;;
71759;SDS011;59919;48.112;16.280;2023-07-29T07:17:45;5.35;;;2.17;;
71759;SDS011;59919;48.112;16.280;2023-07-29T07:20:19;3.63;;;2.00;;
71759;SDS011;59919;48.112;16.280;2023-07-29T07:22:50;2.63;;;1.70;;
71759;SDS011;59919;48.112;16.280;2023-07-29T07:25:22;3.20;;;1.67;;
71759;SDS011;59919;48.112;16.280;2023-07-29T07:27:57;2.53;;;1.77;;
71759;SDS011;59919;48.112;16.280;2023-07-29T07:30:28;4.18;;;1.90;;
71759;SDS011;59919;48.112;16.280;2023-07-29T07:33:02;2.25;;;1.77;;
71759;SDS011;59919;48.112;16.280;2023-07-29T07:35:33;3.25;;;2.13;;
71759;SDS011;59919;48.112;16.280;2023-07-29T07:38:09;5.60;;;2.17;;
71759;SDS011;59919;48.112;16.280;2023-07-29T07:40:41;2.58;;;1.80;;
71759;SDS011;59919;48.112;16.280;2023-07-29T07:43:23;4.82;;;1.90;;
71759;SDS011;59919;48.112;16.280;2023-07-29T07:45:58;3.70;;;1.95;;
71759;SDS011;59919;48.112;16.280;2023-07-29T07:48:30;2.88;;;2.00;;
71759;SDS011;59919;48.112;16.280;2023-07-29T07:51:10;1.85;;;1.60;;
71759;SDS011;59919;48.112;16.280;2023-07-29T07:53:42;3.22;;;2.17;;
71759;SDS011;59919;48.112;16.280;2023-07-29T07:56:13;2.28;;;1.70;;
71759;SDS011;59919;48.112;16.280;2023-07-29T07:58:45;3.83;;;1.90;;
71759;SDS011;59919;48.112;16.280;2023-07-29T08:01:16;4.75;;;2.05;;
71759;SDS011;59919;48.112;16.280;2023-07-29T08:03:51;3.53;;;1.88;;
71759;SDS011;59919;48.112;16.280;2023-07-29T08:06:22;2.22;;;1.48;;
71759;SDS011;59919;48.112;16.280;2023-07-29T08:08:54;4.20;;;1.80;;
71759;SDS011;59919;48.112;16.280;2023-07-29T08:11:25;2.47;;;1.77;;
71759;SDS011;59919;48.112;16.280;2023-07-29T08:13:58;4.60;;;2.00;;
71759;SDS011;59919;48.112;16.280;2023-07-29T08:16:29;4.15;;;1.98;;
71759;SDS011;59919;48.112;16.280;2023-07-29T08:19:05;2.50;;;1.77;;
71759;SDS011;59919;48.112;16.280;2023-07-29T08:21:40;3.58;;;1.80;;
71759;SDS011;59919;48.112;16.280;2023-07-29T08:24:11;2.17;;;1.80;;
71759;SDS011;59919;48.112;16.280;2023-07-29T08:26:42;2.50;;;1.55;;
71759;SDS011;59919;48.112;16.280;2023-07-29T08:29:13;2.75;;;1.70;;
71759;SDS011;59919;48.112;16.280;2023-07-29T08:31:45;2.28;;;1.63;;
71759;SDS011;59919;48.112;16.280;2023-07-29T08:34:22;3.03;;;1.60;;
71759;SDS011;59919;48.112;16.280;2023-07-29T08:36:53;1.85;;;1.50;;
71759;SDS011;59919;48.112;16.280;2023-07-29T08:39:26;2.30;;;1.88;;
71759;SDS011;59919;48.112;16.280;2023-07-29T08:42:04;1.90;;;1.58;;
71759;SDS011;59919;48.112;16.280;2023-07-29T08:44:42;2.05;;;1.60;;
71759;SDS011;59919;48.112;16.280;2023-07-29T08:47:14;3.88;;;2.00;;
71759;SDS011;59919;48.112;16.280;2023-07-29T08:49:49;2.58;;;1.50;;
71759;SDS011;59919;48.112;16.280;2023-07-29T08:52:22;3.38;;;1.50;;
71759;SDS011;59919;48.112;16.280;2023-07-29T08:54:57;2.03;;;1.40;;
71759;SDS011;59919;48.112;16.280;2023-07-29T08:57:32;2.25;;;1.58;;
71759;SDS011;59919;48.112;16.280;2023-07-29T09:00:04;2.78;;;1.63;;
71759;SDS011;59919;48.112;16.280;2023-07-29T09:02:38;2.53;;;1.42;;
71759;SDS011;59919;48.112;16.280;2023-07-29T09:05:12;1.80;;;1.65;;
71759;SDS011;59919;48.112;16.280;2023-07-29T09:07:44;2.17;;;1.40;;
71759;SDS011;59919;48.112;16.280;2023-07-29T09:10:16;1.90;;;1.52;;
71759;SDS011;59919;48.112;16.280;2023-07-29T09:12:51;1.60;;;1.30;;
71759;SDS011;59919;48.112;16.280;2023-07-29T09:15:29;2.58;;;1.55;;
71759;SDS011;59919;48.112;16.280;2023-07-29T09:18:09;2.15;;;1.60;;
71759;SDS011;59919;48.112;16.280;2023-07-29T09:20:41;1.23;;;1.13;;
71759;SDS011;59919;48.112;16.280;2023-07-29T09:23:12;1.33;;;1.23;;
71759;SDS011;59919;48.112;16.280;2023-07-29T09:25:43;2.17;;;1.60;;
71759;SDS011;59919;48.112;16.280;2023-07-29T09:28:17;1.90;;;1.40;;
71759;SDS011;59919;48.112;16.280;2023-07-29T09:30:48;2.60;;;1.70;;
71759;SDS011;59919;48.112;16.280;2023-07-29T09:33:20;1.92;;;1.30;;
71759;SDS011;59919;48.112;16.280;2023-07-29T09:35:51;1.42;;;1.30;;
71759;SDS011;59919;48.112;16.280;2023-07-29T09:38:28;1.83;;;1.60;;
71759;SDS011;59919;48.112;16.280;2023-07-29T09:41:01;1.95;;;1.50;;
71759;SDS011;59919;48.112;16.280;2023-07-29T09:43:35;2.70;;;1.50;;
71759;SDS011;59919;48.112;16.280;2023-07-29T09:46:07;2.03;;;1.27;;
71759;SDS011;59919;48.112;16.280;2023-07-29T09:48:41;1.30;;;1.00;;
71759;SDS011;59919;48.112;16.280;2023-07-29T09:51:13;1.92;;;1.58;;
71759;SDS011;59919;48.112;16.280;2023-07-29T09:53:46;2.05;;;1.42;;
71759;SDS011;59919;48.112;16.280;2023-07-29T09:56:18;1.80;;;1.42;;
71759;SDS011;59919;48.112;16.280;2023-07-29T09:58:58;1.90;;;1.20;;
71759;SDS011;59919;48.112;16.280;2023-07-29T10:01:32;3.53;;;1.20;;
71759;SDS011;59919;48.112;16.280;2023-07-29T10:04:05;1.75;;;1.23;;
71759;SDS011;59919;48.112;16.280;2023-07-29T10:06:40;2.28;;;1.65;;
71759;SDS011;59919;48.112;16.280;2023-07-29T10:09:15;1.58;;;1.30;;
71759;SDS011;59919;48.112;16.280;2023-07-29T10:11:51;1.77;;;1.13;;
71759;SDS011;59919;48.112;16.280;2023-07-29T10:14:26;1.75;;;1.30;;
71759;SDS011;59919;48.112;16.280;2023-07-29T10:17:01;1.20;;;1.10;;
71759;SDS011;59919;48.112;16.280;2023-07-29T10:19:34;2.45;;;1.23;;
71759;SDS011;59919;48.112;16.280;2023-07-29T10:22:10;1.77;;;1.20;;
71759;SDS011;59919;48.112;16.280;2023-07-29T10:24:50;2.15;;;1.25;;
71759;SDS011;59919;48.112;16.280;2023-07-29T10:27:24;2.17;;;1.20;;
71759;SDS011;59919;48.112;16.280;2023-07-29T10:30:00;1.00;;;0.90;;
71759;SDS011;59919;48.112;16.280;2023-07-29T10:32:35;2.00;;;1.23;;
71759;SDS011;59919;48.112;16.280;2023-07-29T10:35:15;1.27;;;1.10;;
71759;SDS011;59919;48.112;16.280;2023-07-29T10:37:49;2.22;;;1.38;;
71759;SDS011;59919;48.112;16.280;2023-07-29T10:40:22;1.48;;;1.38;;
71759;SDS011;59919;48.112;16.280;2023-07-29T10:43:03;2.45;;;1.27;;
71759;SDS011;59919;48.112;16.280;2023-07-29T10:45:43;1.42;;;1.00;;
71759;SDS011;59919;48.112;16.280;2023-07-29T10:48:52;1.85;;;0.98;;
71759;SDS011;59919;48.112;16.280;2023-07-29T10:51:26;1.60;;;1.10;;
71759;SDS011;59919;48.112;16.280;2023-07-29T10:54:12;2.70;;;1.30;;
71759;SDS011;59919;48.112;16.280;2023-07-29T10:56:48;1.17;;;1.00;;
71759;SDS011;59919;48.112;16.280;2023-07-29T10:59:23;2.10;;;1.35;;
71759;SDS011;59919;48.112;16.280;2023-07-29T11:02:12;1.30;;;1.10;;
71759;SDS011;59919;48.112;16.280;2023-07-29T11:04:51;1.70;;;0.95;;
71759;SDS011;59919;48.112;16.280;2023-07-29T11:07:30;1.33;;;1.17;;
71759;SDS011;59919;48.112;16.280;2023-07-29T11:10:04;1.55;;;1.02;;
71759;SDS011;59919;48.112;16.280;2023-07-29T11:12:48;1.33;;;1.23;;
71759;SDS011;59919;48.112;16.280;2023-07-29T11:15:30;1.17;;;1.08;;
71759;SDS011;59919;48.112;16.280;2023-07-29T11:18:01;0.93;;;0.85;;
71759;SDS011;59919;48.112;16.280;2023-07-29T11:20:39;1.38;;;1.02;;
71759;SDS011;59919;48.112;16.280;2023-07-29T11:23:13;1.15;;;1.05;;
71759;SDS011;59919;48.112;16.280;2023-07-29T11:25:47;1.42;;;1.02;;
71759;SDS011;59919;48.112;16.280;2023-07-29T11:28:18;1.20;;;1.10;;
71759;SDS011;59919;48.112;16.280;2023-07-29T11:30:49;1.30;;;1.20;;
71759;SDS011;59919;48.112;16.280;2023-07-29T11:33:22;1.60;;;1.08;;
71759;SDS011;59919;48.112;16.280;2023-07-29T11:35:58;2.10;;;1.20;;
71759;SDS011;59919;48.112;16.280;2023-07-29T11:38:38;1.20;;;1.08;;
71759;SDS011;59919;48.112;16.280;2023-07-29T11:41:12;1.40;;;1.20;;
71759;SDS011;59919;48.112;16.280;2023-07-29T11:43:52;1.48;;;1.15;;
71759;SDS011;59919;48.112;16.280;2023-07-29T11:46:24;1.38;;;1.10;;
71759;SDS011;59919;48.112;16.280;2023-07-29T11:48:56;2.42;;;1.27;;
71759;SDS011;59919;48.112;16.280;2023-07-29T11:51:27;1.35;;;1.13;;
71759;SDS011;59919;48.112;16.280;2023-07-29T11:53:59;1.20;;;1.08;;
71759;SDS011;59919;48.112;16.280;2023-07-29T11:56:34;2.28;;;1.25;;
71759;SDS011;59919;48.112;16.280;2023-07-29T11:59:05;1.30;;;1.20;;
71759;SDS011;59919;48.112;16.280;2023-07-29T12:01:37;1.70;;;1.20;;
71759;SDS011;59919;48.112;16.280;2023-07-29T12:04:13;1.30;;;1.00;;
71759;SDS011;59919;48.112;16.280;2023-07-29T12:06:45;1.42;;;1.10;;
71759;SDS011;59919;48.112;16.280;2023-07-29T12:09:17;1.38;;;1.08;;
71759;SDS011;59919;48.112;16.280;2023-07-29T12:11:51;1.10;;;1.00;;
71759;SDS011;59919;48.112;16.280;2023-07-29T12:17:00;1.13;;;1.00;;
71759;SDS011;59919;48.112;16.280;2023-07-29T12:22:08;1.23;;;0.90;;
71759;SDS011;59919;48.112;16.280;2023-07-29T12:24:43;0.98;;;0.90;;
71759;SDS011;59919;48.112;16.280;2023-07-29T12:27:14;1.25;;;1.02;;
71759;SDS011;59919;48.112;16.280;2023-07-29T12:29:53;1.02;;;0.80;;
71759;SDS011;59919;48.112;16.280;2023-07-29T12:32:29;1.88;;;1.17;;
71759;SDS011;59919;48.112;16.280;2023-07-29T12:35:01;1.35;;;0.75;;
71759;SDS011;59919;48.112;16.280;2023-07-29T12:37:42;0.77;;;0.77;;
71759;SDS011;59919;48.112;16.280;2023-07-29T12:40:23;1.77;;;1.00;;
71759;SDS011;59919;48.112;16.280;2023-07-29T12:42:58;1.00;;;0.93;;
71759;SDS011;59919;48.112;16.280;2023-07-29T12:45:35;1.45;;;1.00;;
71759;SDS011;59919;48.112;16.280;2023-07-29T12:48:07;1.63;;;1.00;;
71759;SDS011;59919;48.112;16.280;2023-07-29T12:50:40;1.58;;;0.90;;
71759;SDS011;59919;48.112;16.280;2023-07-29T12:53:17;1.40;;;1.05;;
71759;SDS011;59919;48.112;16.280;2023-07-29T12:55:53;1.00;;;0.90;;
71759;SDS011;59919;48.112;16.280;2023-07-29T12:58:27;1.42;;;1.10;;
71759;SDS011;59919;48.112;16.280;2023-07-29T13:00:58;1.10;;;0.95;;
71759;SDS011;59919;48.112;16.280;2023-07-29T13:03:31;2.08;;;1.08;;
71759;SDS011;59919;48.112;16.280;2023-07-29T13:06:03;1.40;;;1.10;;
71759;SDS011;59919;48.112;16.280;2023-07-29T13:08:37;1.23;;;1.08;;
71759;SDS011;59919;48.112;16.280;2023-07-29T13:11:08;1.40;;;0.90;;
71759;SDS011;59919;48.112;16.280;2023-07-29T13:13:39;0.88;;;0.80;;
71759;SDS011;59919;48.112;16.280;2023-07-29T13:16:11;1.25;;;0.95;;
71759;SDS011;59919;48.112;16.280;2023-07-29T13:18:45;1.27;;;1.00;;
71759;SDS011;59919;48.112;16.280;2023-07-29T13:21:16;1.17;;;0.80;;
71759;SDS011;59919;48.112;16.280;2023-07-29T13:23:52;1.38;;;0.80;;
71759;SDS011;59919;48.112;16.280;2023-07-29T13:26:23;0.95;;;0.80;;
71759;SDS011;59919;48.112;16.280;2023-07-29T13:28:54;1.85;;;0.98;;
71759;SDS011;59919;48.112;16.280;2023-07-29T13:31:33;1.33;;;0.90;;
71759;SDS011;59919;48.112;16.280;2023-07-29T13:34:07;1.23;;;0.93;;
71759;SDS011;59919;48.112;16.280;2023-07-29T13:36:40;1.42;;;0.80;;
71759;SDS011;59919;48.112;16.280;2023-07-29T13:39:15;0.90;;;0.80;;
71759;SDS011;59919;48.112;16.280;2023-07-29T13:41:49;0.98;;;0.85;;
71759;SDS011;59919;48.112;16.280;2023-07-29T13:44:23;1.25;;;0.95;;
71759;SDS011;59919;48.112;16.280;2023-07-29T13:46:54;1.17;;;1.00;;
71759;SDS011;59919;48.112;16.280;2023-07-29T13:49:28;1.27;;;0.88;;
71759;SDS011;59919;48.112;16.280;2023-07-29T13:52:01;1.30;;;1.10;;
71759;SDS011;59919;48.112;16.280;2023-07-29T13:54:38;0.75;;;0.73;;
71759;SDS011;59919;48.112;16.280;2023-07-29T13:57:10;1.23;;;0.90;;
71759;SDS011;59919;48.112;16.280;2023-07-29T13:59:44;1.20;;;0.95;;
71759;SDS011;59919;48.112;16.280;2023-07-29T14:02:17;2.00;;;1.02;;
71759;SDS011;59919;48.112;16.280;2023-07-29T14:04:48;0.93;;;0.70;;
71759;SDS011;59919;48.112;16.280;2023-07-29T14:07:27;0.90;;;0.75;;
71759;SDS011;59919;48.112;16.280;2023-07-29T14:09:58;1.00;;;0.80;;
71759;SDS011;59919;48.112;16.280;2023-07-29T14:12:29;1.05;;;0.80;;
71759;SDS011;59919;48.112;16.280;2023-07-29T14:15:04;0.88;;;0.80;;
71759;SDS011;59919;48.112;16.280;2023-07-29T14:17:38;1.08;;;0.90;;
71759;SDS011;59919;48.112;16.280;2023-07-29T14:20:12;1.00;;;0.90;;
71759;SDS011;59919;48.112;16.280;2023-07-29T14:22:44;0.80;;;0.73;;
71759;SDS011;59919;48.112;16.280;2023-07-29T14:25:15;1.23;;;0.73;;
71759;SDS011;59919;48.112;16.280;2023-07-29T14:27:46;1.00;;;0.90;;
71759;SDS011;59919;48.112;16.280;2023-07-29T14:30:22;1.05;;;0.77;;
71759;SDS011;59919;48.112;16.280;2023-07-29T14:32:54;1.05;;;0.95;;
71759;SDS011;59919;48.112;16.280;2023-07-29T14:35:25;1.08;;;0.82;;
71759;SDS011;59919;48.112;16.280;2023-07-29T14:37:56;0.90;;;0.80;;
71759;SDS011;59919;48.112;16.280;2023-07-29T14:43:04;0.75;;;0.70;;
71759;SDS011;59919;48.112;16.280;2023-07-29T14:45:37;0.75;;;0.75;;
71759;SDS011;59919;48.112;16.280;2023-07-29T14:48:09;1.00;;;0.90;;
71759;SDS011;59919;48.112;16.280;2023-07-29T14:50:40;0.80;;;0.70;;
71759;SDS011;59919;48.112;16.280;2023-07-29T14:53:12;0.90;;;0.70;;
71759;SDS011;59919;48.112;16.280;2023-07-29T14:55:47;1.10;;;0.82;;
71759;SDS011;59919;48.112;16.280;2023-07-29T14:58:18;1.10;;;0.90;;
71759;SDS011;59919;48.112;16.280;2023-07-29T15:00:49;1.20;;;0.90;;
71759;SDS011;59919;48.112;16.280;2023-07-29T15:03:21;0.80;;;0.80;;
71759;SDS011;59919;48.112;16.280;2023-07-29T15:05:55;1.23;;;0.90;;
71759;SDS011;59919;48.112;16.280;2023-07-29T15:08:31;0.80;;;0.70;;
71759;SDS011;59919;48.112;16.280;2023-07-29T15:11:02;0.80;;;0.70;;
71759;SDS011;59919;48.112;16.280;2023-07-29T15:13:33;1.48;;;0.90;;
71759;SDS011;59919;48.112;16.280;2023-07-29T15:16:07;0.80;;;0.73;;
71759;SDS011;59919;48.112;16.280;2023-07-29T15:18:38;1.08;;;0.88;;
71759;SDS011;59919;48.112;16.280;2023-07-29T15:21:09;1.05;;;0.80;;
71759;SDS011;59919;48.112;16.280;2023-07-29T15:23:40;0.80;;;0.80;;
71759;SDS011;59919;48.112;16.280;2023-07-29T15:26:15;0.90;;;0.75;;
71759;SDS011;59919;48.112;16.280;2023-07-29T15:28:48;1.10;;;0.60;;